createdAt,value
2022-08-02T00:01:00.960Z,99204.81
2022-08-02T00:06:05.887Z,99211.13
2022-08-02T00:11:09.277Z,99213.91
2022-08-02T00:16:16.820Z,99208.81
2022-08-02T00:21:21.949Z,99205.53
2022-08-02T00:26:25.329Z,99202.22
2022-08-02T00:31:28.652Z,99199.81
2022-08-02T00:36:33.405Z,99193.13
2022-08-02T00:41:46.628Z,99195.16
2022-08-02T00:46:50.016Z,99195.00
2022-08-02T00:51:54.805Z,99197.22
2022-08-02T00:56:58.182Z,99191.13
2022-08-02T01:02:01.678Z,99197.28
2022-08-02T01:07:12.072Z,99196.59
2022-08-02T01:12:16.924Z,99196.13
2022-08-02T01:17:24.818Z,99192.03
2022-08-02T01:23:01.724Z,99201.94
2022-08-02T01:28:27.891Z,99197.69
2022-08-02T01:33:37.407Z,99183.97
2022-08-02T01:38:43.531Z,99198.28
2022-08-02T01:43:50.942Z,99203.88
2022-08-02T01:48:57.533Z,99204.84
2022-08-02T01:54:01.005Z,99203.47
2022-08-02T01:59:10.719Z,99200.09
2022-08-02T02:04:17.086Z,99202.94
2022-08-02T02:09:22.088Z,99202.38
2022-08-02T02:14:29.571Z,99208.25
2022-08-02T02:19:35.407Z,99206.53
2022-08-02T02:24:38.783Z,99203.75
2022-08-02T02:29:48.442Z,99204.03
2022-08-02T02:34:53.862Z,99204.03
2022-08-02T02:39:59.382Z,99211.94
2022-08-02T02:45:05.770Z,99198.75
2022-08-02T02:50:11.578Z,99208.84
2022-08-02T02:55:15.599Z,99207.44
2022-08-02T03:00:40.862Z,99211.09
2022-08-02T03:05:44.262Z,99215.88
2022-08-02T03:10:48.497Z,99210.25
2022-08-02T03:15:54.725Z,99194.19
2022-08-02T03:21:00.883Z,99210.69
2022-08-02T03:26:04.443Z,99213.47
2022-08-02T03:31:09.279Z,99209.94
2022-08-02T03:36:15.007Z,99219.03
2022-08-02T03:41:19.406Z,99220.81
2022-08-02T03:46:25.210Z,99216.81
2022-08-02T03:51:28.734Z,99225.75
2022-08-02T03:56:33.283Z,99225.16
2022-08-02T04:01:38.041Z,99225.13
2022-08-02T04:06:41.638Z,99229.25
2022-08-02T04:11:45.218Z,99227.28
2022-08-02T04:16:54.036Z,99223.03
2022-08-02T04:22:01.116Z,99225.91
2022-08-02T04:27:19.087Z,99230.53
2022-08-02T04:32:32.155Z,99222.56
2022-08-02T04:37:35.832Z,99226.38
2022-08-02T04:42:39.934Z,99225.56
2022-08-02T04:48:02.491Z,99222.56
2022-08-02T04:53:07.079Z,99216.19
2022-08-02T04:58:38.248Z,99216.63
2022-08-02T05:03:35.284Z,99223.75
2022-08-02T05:08:38.615Z,99237.38
2022-08-02T05:13:59.279Z,99235.09
2022-08-02T05:19:04.528Z,99230.59
2022-08-02T05:24:08.713Z,99228.19
2022-08-02T05:29:12.075Z,99211.78
2022-08-02T05:34:16.955Z,99219.69
2022-08-02T05:39:20.226Z,99199.75
2022-08-02T05:44:24.527Z,99216.56
2022-08-02T05:49:29.424Z,99215.47
2022-08-02T05:54:42.802Z,99210.91
2022-08-02T05:59:58.682Z,99199.75
2022-08-02T06:05:06.960Z,99190.22
2022-08-02T06:10:13.403Z,99198.78
2022-08-02T06:15:18.755Z,99196.47
2022-08-02T06:20:25.384Z,99202.94
2022-08-02T06:25:50.616Z,99186.09
2022-08-02T06:30:54.267Z,99196.72
2022-08-02T06:36:05.187Z,99190.94
2022-08-02T06:41:10.960Z,99195.03
2022-08-02T06:47:09.230Z,99179.38
2022-08-02T06:51:42.226Z,99188.69
2022-08-02T06:56:46.815Z,99176.47
2022-08-02T07:01:51.262Z,99174.81
2022-08-02T07:06:57.116Z,99173.31
2022-08-02T07:12:00.440Z,99173.75
2022-08-02T07:17:03.940Z,99170.13
2022-08-02T07:22:08.697Z,99173.31
2022-08-02T07:27:12.878Z,99169.84
2022-08-02T07:32:17.363Z,99158.03
2022-08-02T07:37:54.176Z,99166.63
2022-08-02T07:42:47.228Z,99156.16
2022-08-02T07:47:51.514Z,99157.34
2022-08-02T07:52:58.029Z,99142.56
2022-08-02T07:58:01.617Z,99151.19
2022-08-02T08:03:05.253Z,99151.91
2022-08-02T08:08:15.245Z,99139.97
2022-08-02T08:13:20.670Z,99148.56
2022-08-02T08:18:24.212Z,99150.28
2022-08-02T08:23:28.934Z,99150.41
2022-08-02T08:28:32.374Z,99148.22
2022-08-02T08:33:35.755Z,99150.94
2022-08-02T08:38:40.591Z,99147.47
2022-08-02T08:43:44.011Z,99141.47
2022-08-02T08:48:50.514Z,99142.81
2022-08-02T08:53:58.350Z,99143.97
2022-08-02T08:59:01.866Z,99142.94
2022-08-02T09:04:05.351Z,99137.88
2022-08-02T09:09:10.460Z,99139.09
2022-08-02T09:14:28.101Z,99112.06
2022-08-02T09:19:31.442Z,99131.97
2022-08-02T09:24:43.961Z,99131.88
2022-08-02T09:35:12.006Z,99124.22
2022-08-02T09:40:16.816Z,99124.03
2022-08-02T09:45:20.375Z,99111.72
2022-08-02T09:50:23.700Z,99085.63
2022-08-02T09:55:28.346Z,99112.50
2022-08-02T10:00:52.029Z,99102.66
2022-08-02T10:06:03.158Z,99114.50
2022-08-02T10:11:08.244Z,99110.34
2022-08-02T10:16:12.043Z,99109.78
2022-08-02T10:21:18.685Z,99103.94
2022-08-02T10:26:23.737Z,99106.38
2022-08-02T10:31:32.022Z,99112.81
2022-08-02T10:36:36.241Z,99115.56
2022-08-02T10:41:46.230Z,99106.84
2022-08-02T10:46:49.651Z,99101.78
2022-08-02T10:51:59.778Z,99099.59
2022-08-02T10:57:15.451Z,99095.09
2022-08-02T11:02:42.916Z,99096.81
2022-08-02T11:07:49.599Z,99085.88
2022-08-02T11:13:06.899Z,99091.34
2022-08-02T11:18:10.388Z,99090.13
2022-08-02T11:23:44.568Z,99089.88
2022-08-02T11:28:52.031Z,99084.91
2022-08-02T11:33:56.094Z,99094.84
2022-08-02T11:39:10.528Z,99101.06
2022-08-02T11:44:15.362Z,99093.50
2022-08-02T11:49:20.568Z,99093.66
2022-08-02T11:54:25.782Z,99093.91
2022-08-02T11:59:30.637Z,99089.63
2022-08-02T12:04:34.203Z,99088.88
2022-08-02T12:09:41.289Z,99087.97
2022-08-02T12:14:46.439Z,99097.53
2022-08-02T12:19:50.076Z,99089.09
2022-08-02T12:24:55.922Z,99096.50
2022-08-02T12:30:08.882Z,99086.56
2022-08-02T12:35:14.057Z,99090.13
2022-08-02T12:40:28.270Z,99089.66
2022-08-02T12:45:48.674Z,99062.31
2022-08-02T12:50:53.809Z,99086.94
2022-08-02T12:56:02.298Z,99083.88
2022-08-02T13:01:08.327Z,99084.56
2022-08-02T13:06:42.078Z,99086.56
2022-08-02T13:11:35.119Z,99083.22
2022-08-02T13:16:39.850Z,99073.69
2022-08-02T13:22:02.691Z,99087.31
2022-08-02T13:27:08.215Z,99070.38
2022-08-02T13:32:14.434Z,99078.59
2022-08-02T13:37:19.454Z,99062.47
2022-08-02T13:42:23.135Z,99069.59
2022-08-02T13:47:57.222Z,99068.88
2022-08-02T13:52:51.919Z,99069.09
2022-08-02T13:57:55.356Z,99054.84
2022-08-02T14:03:00.186Z,99061.56
2022-08-02T14:08:03.775Z,99052.59
2022-08-02T14:13:07.645Z,99053.84
2022-08-02T14:18:12.742Z,99049.09
2022-08-02T14:23:16.109Z,99055.16
2022-08-02T14:28:19.622Z,99043.75
2022-08-02T14:33:24.148Z,99046.31
2022-08-02T14:38:27.722Z,99045.59
2022-08-02T14:43:51.868Z,99049.09
2022-08-02T14:48:56.876Z,99047.09
2022-08-02T14:54:03.201Z,99048.22
2022-08-02T14:59:07.530Z,99049.91
2022-08-02T15:04:12.409Z,99051.63
2022-08-02T15:09:15.931Z,99050.91
2022-08-02T15:14:22.204Z,99041.59
2022-08-02T15:19:56.215Z,99042.31
2022-08-02T15:24:54.785Z,99047.84
2022-08-02T15:30:00.895Z,99051.44
2022-08-02T15:35:06.824Z,99043.94
2022-08-02T15:40:11.420Z,99050.69
2022-08-02T15:45:15.799Z,99058.03
2022-08-02T15:50:21.099Z,99058.25
2022-08-02T15:55:24.632Z,99049.75
2022-08-02T16:00:29.994Z,99049.25
2022-08-02T16:05:34.981Z,99047.81
2022-08-02T16:10:38.406Z,99040.34
2022-08-02T16:15:41.914Z,99050.53
2022-08-02T16:20:46.655Z,99056.47
2022-08-02T16:25:50.062Z,99050.69
2022-08-02T16:31:09.911Z,99032.22
2022-08-02T16:36:19.545Z,99054.47
2022-08-02T16:41:23.490Z,99050.44
2022-08-02T16:46:46.793Z,99054.81
2022-08-02T16:51:55.705Z,99060.69
2022-08-02T16:56:59.109Z,99071.59
2022-08-02T17:02:11.602Z,99073.00
2022-08-02T17:08:08.395Z,99073.06
2022-08-02T17:12:43.580Z,99083.72
2022-08-02T17:17:47.102Z,99080.00
2022-08-02T17:22:53.241Z,99098.69
2022-08-02T17:27:57.191Z,99088.44
2022-08-02T17:33:00.644Z,99101.06
2022-08-02T17:38:06.306Z,99104.25
2022-08-02T17:43:14.809Z,99112.81
2022-08-02T17:48:20.095Z,99108.94
2022-08-02T17:53:36.296Z,99115.22
2022-08-02T17:58:51.848Z,99106.78
2022-08-02T18:03:57.447Z,99120.00
2022-08-02T18:09:03.090Z,99120.06
2022-08-02T18:14:08.891Z,99114.00
2022-08-02T18:19:16.855Z,99107.75
2022-08-02T18:24:24.210Z,99111.16
2022-08-02T18:29:30.184Z,99111.31
2022-08-02T18:34:44.428Z,99110.31
2022-08-02T18:39:52.536Z,99115.59
2022-08-02T18:44:55.906Z,99105.94
2022-08-02T18:50:00.403Z,99107.41
2022-08-02T18:55:17.050Z,99115.16
2022-08-02T19:00:25.784Z,99116.63
2022-08-02T19:05:53.332Z,99105.00
2022-08-02T19:10:56.394Z,99114.53
2022-08-02T19:16:00.897Z,99118.59
2022-08-02T19:21:05.500Z,99126.06
2022-08-02T19:26:10.621Z,99123.78
2022-08-02T19:31:14.098Z,99116.41
2022-08-02T19:36:18.263Z,99113.97
2022-08-02T19:41:23.579Z,99122.16
2022-08-02T19:46:27.070Z,99119.09
2022-08-02T19:51:49.983Z,99122.06
2022-08-02T19:56:55.799Z,99123.31
2022-08-02T20:02:01.123Z,99133.47
2022-08-02T20:07:04.890Z,99118.84
2022-08-02T20:12:10.782Z,99124.72
2022-08-02T20:17:14.811Z,99126.44
2022-08-02T20:22:18.614Z,99131.88
2022-08-02T20:27:27.209Z,99133.00
2022-08-02T20:32:33.536Z,99135.13
2022-08-02T20:37:56.072Z,99131.16
2022-08-02T20:43:01.974Z,99131.28
2022-08-02T20:48:07.072Z,99135.03
2022-08-02T20:53:23.797Z,99125.66
2022-08-02T20:58:30.985Z,99130.41
2022-08-02T21:03:39.981Z,99121.59
2022-08-02T21:08:45.960Z,99132.97
2022-08-02T21:14:08.699Z,99136.50
2022-08-02T21:19:13.303Z,99135.97
2022-08-02T21:24:16.706Z,99141.34
2022-08-02T21:29:21.427Z,99132.69
2022-08-02T21:34:27.380Z,99131.97
2022-08-02T21:39:32.440Z,99138.19
2022-08-02T21:44:37.201Z,99142.66
2022-08-02T21:50:13.500Z,99143.69
2022-08-02T21:55:07.983Z,99148.06
2022-08-02T22:00:28.370Z,99153.47
2022-08-02T22:05:37.200Z,99150.22
2022-08-02T22:10:54.615Z,99153.69
2022-08-02T22:16:00.128Z,99159.78
2022-08-02T22:21:14.250Z,99152.84
2022-08-02T22:26:19.989Z,99151.00
2022-08-02T22:31:40.973Z,99165.13
2022-08-02T22:36:45.774Z,99148.06
2022-08-02T22:42:05.769Z,99169.00
2022-08-02T22:47:14.759Z,99168.22
2022-08-02T22:52:20.929Z,99164.06
2022-08-02T22:57:30.734Z,99160.50
2022-08-02T23:02:36.214Z,99161.28
2022-08-02T23:07:41.690Z,99164.06
2022-08-02T23:12:45.051Z,99161.53
2022-08-02T23:18:07.105Z,99163.53
2022-08-02T23:23:11.612Z,99171.72
2022-08-02T23:28:15.219Z,99171.91
2022-08-02T23:33:20.006Z,99168.59
2022-08-02T23:38:23.349Z,99166.28
2022-08-02T23:43:26.681Z,99173.50
2022-08-02T23:48:31.631Z,99178.94
2022-08-02T23:53:35.046Z,99189.66
2022-08-02T23:58:41.814Z,99182.94
